Time;durP1;ratioP1;P1;durP2;ratioP2;P2;SDS_P1;SDS_P2;PMS_P1;PMS_P2;Temp;Humidity;BMP_temperature;BMP_pressure;BME280_temperature;BME280_humidity;BME280_pressure;Samples;Min_cycle;Max_cycle;Signal;HPM_P1;HPM_P2
2021/07/11 00:00:44;;;;;;;27.05;22.17;;;;;;;;;;2052524;28;20257;-51
2021/07/11 00:01:44;;;;;;;22.95;20.77;;;;;;;;;;2048249;28;20202;-54
2021/07/11 00:02:44;;;;;;;23.52;21.33;;;;;;;;;;2056964;28;20593;-49
2021/07/11 00:03:44;;;;;;;21.75;19.58;;;;;;;;;;2055865;28;20603;-48
2021/07/11 00:04:45;;;;;;;24.38;21.98;;;;;;;;;;2055524;28;20838;-48
2021/07/11 00:05:45;;;;;;;23.13;20.73;;;;;;;;;;2057017;28;20184;-49
2021/07/11 00:06:45;;;;;;;23.45;21.10;;;;;;;;;;2049431;28;20262;-47
2021/07/11 00:07:45;;;;;;;23.33;20.90;;;;;;;;;;2057190;28;20658;-48
2021/07/11 00:08:46;;;;;;;22.75;20.45;;;;;;;;;;2056762;28;20669;-50
2021/07/11 00:09:46;;;;;;;23.52;21.13;;;;;;;;;;2056834;28;20193;-51
2021/07/11 00:10:47;;;;;;;22.20;20.10;;;;;;;;;;2057041;28;20170;-51
2021/07/11 00:11:47;;;;;;;22.30;20.02;;;;;;;;;;2056720;28;20186;-51
2021/07/11 00:12:48;;;;;;;23.73;21.23;;;;;;;;;;2048551;29;20690;-48
2021/07/11 00:13:48;;;;;;;22.63;20.40;;;;;;;;;;2048208;29;20182;-51
2021/07/11 00:14:49;;;;;;;22.17;19.95;;;;;;;;;;2057003;28;20194;-50
2021/07/11 00:15:49;;;;;;;24.25;21.73;;;;;;;;;;2057014;28;20597;-52
2021/07/11 00:16:49;;;;;;;25.92;23.35;;;;;;;;;;2056891;28;20561;-49
2021/07/11 00:17:53;;;;;;;24.38;22.08;;;;;;;;;;2057179;28;20177;-50
2021/07/11 00:18:53;;;;;;;24.83;22.33;;;;;;;;;;2056683;28;20183;-49
2021/07/11 00:19:55;;;;;;;24.13;21.73;;;;;;;;;;2056468;28;20218;-49
2021/07/11 00:20:55;;;;;;;24.30;21.83;;;;;;;;;;2056819;28;20174;-48
2021/07/11 00:21:55;;;;;;;22.23;20.10;;;;;;;;;;2056610;28;20178;-49
2021/07/11 00:22:56;;;;;;;23.77;21.35;;;;;;;;;;2057020;28;20190;-48
2021/07/11 00:23:56;;;;;;;23.27;20.98;;;;;;;;;;2056383;28;20843;-48
2021/07/11 00:24:56;;;;;;;23.92;20.90;;;;;;;;;;2055541;28;20221;-47
2021/07/11 00:25:57;;;;;;;26.27;22.05;;;;;;;;;;2050550;28;20171;-49
2021/07/11 00:26:57;;;;;;;25.40;22.88;;;;;;;;;;2055218;28;20209;-49
2021/07/11 00:27:57;;;;;;;25.63;23.13;;;;;;;;;;2052005;28;20182;-47
2021/07/11 00:28:57;;;;;;;23.38;20.95;;;;;;;;;;2047853;28;20250;-53
2021/07/11 00:29:58;;;;;;;23.98;21.67;;;;;;;;;;2047867;28;20182;-51
2021/07/11 00:30:58;;;;;;;24.58;22.17;;;;;;;;;;2054682;28;20182;-50
2021/07/11 00:31:58;;;;;;;23.98;21.58;;;;;;;;;;2049144;28;20210;-48
2021/07/11 00:32:58;;;;;;;23.08;20.98;;;;;;;;;;2055250;28;20253;-49
2021/07/11 00:33:59;;;;;;;26.75;21.60;;;;;;;;;;2055455;28;20188;-48
2021/07/11 00:34:59;;;;;;;24.23;21.23;;;;;;;;;;2056178;28;20198;-50
2021/07/11 00:35:59;;;;;;;23.25;21.05;;;;;;;;;;2056412;28;20712;-48
2021/07/11 00:37:00;;;;;;;22.27;20.20;;;;;;;;;;2048646;29;20171;-50
2021/07/11 00:38:00;;;;;;;22.58;20.25;;;;;;;;;;2048531;29;20174;-49
2021/07/11 00:39:01;;;;;;;24.23;21.75;;;;;;;;;;2056698;28;20174;-49
2021/07/11 00:40:02;;;;;;;23.75;21.35;;;;;;;;;;2048479;28;20178;-50
2021/07/11 00:41:03;;;;;;;23.48;21.05;;;;;;;;;;2048022;28;20242;-46
2021/07/11 00:42:03;;;;;;;22.70;20.55;;;;;;;;;;2056852;28;20627;-46
2021/07/11 00:43:06;;;;;;;23.20;20.90;;;;;;;;;;2057084;28;20182;-51
2021/07/11 00:44:08;;;;;;;24.02;21.70;;;;;;;;;;2046195;29;20174;-47
2021/07/11 00:45:08;;;;;;;23.40;21.20;;;;;;;;;;2040657;29;20207;-48
2021/07/11 00:46:12;;;;;;;23.23;20.92;;;;;;;;;;2040634;29;20184;-47
2021/07/11 00:47:13;;;;;;;23.70;21.30;;;;;;;;;;2048218;28;20175;-48
2021/07/11 00:48:14;;;;;;;24.08;21.70;;;;;;;;;;2048598;29;20182;-46
2021/07/11 00:49:15;;;;;;;24.13;21.42;;;;;;;;;;2037881;29;20203;-52
2021/07/11 00:50:18;;;;;;;23.80;21.42;;;;;;;;;;2048644;28;20167;-48
2021/07/11 00:51:22;;;;;;;23.48;21.15;;;;;;;;;;2056608;28;20193;-46
2021/07/11 00:52:23;;;;;;;24.35;22.05;;;;;;;;;;2056667;28;20177;-48
2021/07/11 00:53:23;;;;;;;24.58;21.98;;;;;;;;;;2047911;29;20246;-50
2021/07/11 00:54:24;;;;;;;24.85;22.48;;;;;;;;;;2048237;29;20178;-47
2021/07/11 00:55:24;;;;;;;22.83;20.52;;;;;;;;;;2056113;28;20671;-47
2021/07/11 00:56:27;;;;;;;23.65;21.15;;;;;;;;;;2048428;29;20171;-47
2021/07/11 00:57:27;;;;;;;24.13;21.90;;;;;;;;;;2048703;29;20189;-47
2021/07/11 00:58:28;;;;;;;23.52;21.15;;;;;;;;;;2048677;29;20231;-47
2021/07/11 00:59:30;;;;;;;24.98;22.35;;;;;;;;;;2050375;28;20202;-48
2021/07/11 01:00:31;;;;;;;25.48;21.60;;;;;;;;;;2050140;28;20167;-47
2021/07/11 01:01:42;;;;;;;25.05;22.00;;;;;;;;;;2049290;28;20282;-42
2021/07/11 01:02:46;;;;;;;24.10;21.63;;;;;;;;;;2048449;29;20182;-47
2021/07/11 01:03:50;;;;;;;23.75;21.42;;;;;;;;;;2040515;29;20774;-47
2021/07/11 01:04:52;;;;;;;22.73;20.55;;;;;;;;;;2048188;28;20197;-48
2021/07/11 01:05:55;;;;;;;24.17;21.88;;;;;;;;;;2055870;28;20523;-48
2021/07/11 01:06:59;;;;;;;23.70;21.38;;;;;;;;;;2056432;28;20174;-47
2021/07/11 01:08:13;;;;;;;23.90;21.40;;;;;;;;;;2047214;29;20270;-48
2021/07/11 01:09:18;;;;;;;22.95;20.67;;;;;;;;;;2047146;28;20195;-48
2021/07/11 01:10:57;;;;;;;24.08;21.65;;;;;;;;;;2056370;28;20177;-48
2021/07/11 01:12:02;;;;;;;23.45;21.15;;;;;;;;;;2033125;29;20188;-46
2021/07/11 01:13:10;;;;;;;22.05;20.05;;;;;;;;;;2040548;29;20309;-50
2021/07/11 01:14:14;;;;;;;22.65;20.25;;;;;;;;;;2032731;29;20176;-47
2021/07/11 01:15:15;;;;;;;23.80;21.25;;;;;;;;;;2040871;29;20526;-49
2021/07/11 01:16:21;;;;;;;22.67;20.30;;;;;;;;;;2047638;28;20190;-47
2021/07/11 01:17:29;;;;;;;23.67;21.40;;;;;;;;;;2045116;29;20174;-48
2021/07/11 01:18:31;;;;;;;23.02;20.63;;;;;;;;;;2045664;28;20181;-47
2021/07/11 01:19:41;;;;;;;22.92;20.60;;;;;;;;;;2060960;28;20207;-49
2021/07/11 01:20:49;;;;;;;22.08;19.73;;;;;;;;;;2054422;28;20233;-49
2021/07/11 01:21:52;;;;;;;21.08;19.02;;;;;;;;;;2041101;28;20247;-51
2021/07/11 01:23:01;;;;;;;21.48;19.38;;;;;;;;;;2048293;28;20270;-47
2021/07/11 01:24:13;;;;;;;22.60;20.40;;;;;;;;;;2039621;29;20184;-50
2021/07/11 01:25:26;;;;;;;21.05;19.05;;;;;;;;;;2048439;28;20774;-44
2021/07/11 01:26:27;;;;;;;21.10;19.00;;;;;;;;;;2056027;28;20663;-48
2021/07/11 01:27:29;;;;;;;21.63;19.48;;;;;;;;;;2056154;28;20201;-50
2021/07/11 01:28:29;;;;;;;22.45;20.13;;;;;;;;;;2047542;29;20195;-50
2021/07/11 01:29:30;;;;;;;22.67;20.42;;;;;;;;;;2046615;29;20175;-47
2021/07/11 01:30:31;;;;;;;22.23;20.02;;;;;;;;;;2044085;29;20704;-47
2021/07/11 01:31:33;;;;;;;21.65;19.55;;;;;;;;;;2054198;28;20174;-48
2021/07/11 01:32:34;;;;;;;22.40;20.15;;;;;;;;;;2055487;28;20237;-49
2021/07/11 01:33:36;;;;;;;23.67;21.27;;;;;;;;;;2053044;28;20720;-47
2021/07/11 01:34:38;;;;;;;22.88;20.65;;;;;;;;;;2055870;28;20198;-49
2021/07/11 01:35:41;;;;;;;21.30;19.23;;;;;;;;;;2055960;28;20179;-47
2021/07/11 01:36:41;;;;;;;22.92;20.73;;;;;;;;;;2055875;28;20271;-49
2021/07/11 01:37:45;;;;;;;23.60;21.30;;;;;;;;;;2055870;28;20754;-48
2021/07/11 01:38:46;;;;;;;22.92;20.63;;;;;;;;;;2055192;28;20236;-52
2021/07/11 01:39:47;;;;;;;21.13;19.23;;;;;;;;;;2039248;29;20206;-47
2021/07/11 01:40:49;;;;;;;23.30;20.90;;;;;;;;;;2041659;28;20176;-51
2021/07/11 01:41:49;;;;;;;22.80;20.60;;;;;;;;;;2049117;28;20203;-50
2021/07/11 01:42:52;;;;;;;23.80;21.38;;;;;;;;;;2057232;28;20198;-47
2021/07/11 01:43:54;;;;;;;22.30;20.10;;;;;;;;;;2057876;28;20175;-49
2021/07/11 01:44:55;;;;;;;23.25;20.98;;;;;;;;;;2057612;28;20851;-50
2021/07/11 01:45:56;;;;;;;21.70;19.70;;;;;;;;;;2055220;28;20662;-48
2021/07/11 01:46:57;;;;;;;21.30;19.10;;;;;;;;;;2057721;28;20162;-49
2021/07/11 01:47:58;;;;;;;21.58;19.48;;;;;;;;;;2049189;29;20271;-50
2021/07/11 01:49:00;;;;;;;22.48;20.08;;;;;;;;;;2041114;29;20703;-50
2021/07/11 01:50:03;;;;;;;22.42;20.20;;;;;;;;;;2049325;28;20224;-47
2021/07/11 01:51:04;;;;;;;23.23;20.98;;;;;;;;;;2047877;29;20186;-51
2021/07/11 01:52:04;;;;;;;23.65;21.15;;;;;;;;;;2049491;29;20186;-47
2021/07/11 01:53:05;;;;;;;23.05;20.85;;;;;;;;;;2054430;28;20182;-49
2021/07/11 01:54:06;;;;;;;24.10;21.60;;;;;;;;;;2057799;28;20170;-44
2021/07/11 01:55:10;;;;;;;24.52;21.92;;;;;;;;;;2057718;28;20185;-49
2021/07/11 01:56:12;;;;;;;24.13;21.08;;;;;;;;;;2057077;28;20189;-48
2021/07/11 01:57:15;;;;;;;23.52;21.08;;;;;;;;;;2057609;28;20185;-52
2021/07/11 01:58:24;;;;;;;23.52;21.33;;;;;;;;;;2057999;28;20182;-48
2021/07/11 01:59:25;;;;;;;23.13;20.92;;;;;;;;;;2048546;28;20318;-48
2021/07/11 02:00:34;;;;;;;24.65;22.05;;;;;;;;;;2041702;29;20704;-49
2021/07/11 02:01:35;;;;;;;22.75;20.55;;;;;;;;;;2047871;29;20199;-47
2021/07/11 02:02:47;;;;;;;22.90;20.58;;;;;;;;;;2049290;28;20171;-47
2021/07/11 02:03:56;;;;;;;23.45;20.95;;;;;;;;;;2044328;28;20175;-48
2021/07/11 02:04:57;;;;;;;24.15;21.65;;;;;;;;;;2049340;28;20195;-46
2021/07/11 02:05:57;;;;;;;24.30;21.80;;;;;;;;;;2048478;29;20596;-48
2021/07/11 02:07:02;;;;;;;25.27;22.60;;;;;;;;;;2051097;28;20329;-46
2021/07/11 02:08:03;;;;;;;23.92;21.50;;;;;;;;;;2049176;29;20187;-46
2021/07/11 02:09:08;;;;;;;24.73;21.95;;;;;;;;;;2049705;28;20791;-48
2021/07/11 02:10:11;;;;;;;25.10;22.60;;;;;;;;;;2048570;28;20175;-50
2021/07/11 02:11:14;;;;;;;24.45;22.15;;;;;;;;;;2040889;29;20279;-51
2021/07/11 02:12:32;;;;;;;25.48;22.95;;;;;;;;;;2041089;29;20203;-53
2021/07/11 02:13:32;;;;;;;25.88;22.35;;;;;;;;;;2049018;28;20187;-48
2021/07/11 02:14:40;;;;;;;26.85;24.25;;;;;;;;;;2056942;28;20217;-51
2021/07/11 02:15:45;;;;;;;24.27;21.75;;;;;;;;;;2057151;28;20193;-49
2021/07/11 02:16:46;;;;;;;24.67;22.10;;;;;;;;;;2057370;28;20174;-50
2021/07/11 02:17:52;;;;;;;23.77;21.40;;;;;;;;;;2049180;29;20247;-52
2021/07/11 02:18:57;;;;;;;25.05;21.20;;;;;;;;;;2049548;28;20179;-51
2021/07/11 02:20:02;;;;;;;24.48;22.08;;;;;;;;;;2057609;28;20178;-47
2021/07/11 02:21:07;;;;;;;24.13;21.77;;;;;;;;;;2048454;29;20171;-48
2021/07/11 02:22:11;;;;;;;26.33;23.55;;;;;;;;;;2048434;29;20683;-44
2021/07/11 02:23:13;;;;;;;24.85;22.27;;;;;;;;;;2054872;28;20546;-48
2021/07/11 02:24:20;;;;;;;26.73;23.88;;;;;;;;;;2046395;29;20179;-49
2021/07/11 02:25:24;;;;;;;26.38;23.77;;;;;;;;;;2046282;28;20217;-47
2021/07/11 02:26:29;;;;;;;26.10;23.42;;;;;;;;;;2045347;29;20272;-53
2021/07/11 02:27:31;;;;;;;27.05;24.23;;;;;;;;;;2048583;28;20265;-50
2021/07/11 02:28:34;;;;;;;27.60;24.80;;;;;;;;;;2056949;28;20683;-46
2021/07/11 02:29:38;;;;;;;26.75;24.02;;;;;;;;;;2056117;28;20225;-50
2021/07/11 02:30:51;;;;;;;26.20;23.52;;;;;;;;;;2056870;28;20179;-49
2021/07/11 02:31:52;;;;;;;25.98;23.30;;;;;;;;;;2056804;28;20192;-48
2021/07/11 02:32:53;;;;;;;27.60;24.80;;;;;;;;;;2057328;28;20571;-47
2021/07/11 02:33:53;;;;;;;25.40;22.75;;;;;;;;;;2055019;28;20537;-47
2021/07/11 02:34:54;;;;;;;28.33;24.35;;;;;;;;;;2041010;29;20213;-49
2021/07/11 02:35:56;;;;;;;25.88;23.35;;;;;;;;;;2048518;29;20182;-47
2021/07/11 02:36:58;;;;;;;25.45;22.83;;;;;;;;;;2049837;29;20190;-48
2021/07/11 02:37:59;;;;;;;25.88;23.27;;;;;;;;;;2040848;29;20548;-47
2021/07/11 02:39:01;;;;;;;25.40;22.83;;;;;;;;;;2048859;29;20379;-47
2021/07/11 02:40:08;;;;;;;26.25;22.90;;;;;;;;;;2048741;29;20226;-47
2021/07/11 02:41:09;;;;;;;24.90;22.50;;;;;;;;;;2048009;28;20193;-49
2021/07/11 02:42:10;;;;;;;25.50;22.80;;;;;;;;;;2056889;28;20177;-46
2021/07/11 02:43:12;;;;;;;24.50;22.02;;;;;;;;;;2049668;28;20198;-48
2021/07/11 02:44:13;;;;;;;26.80;24.00;;;;;;;;;;2054662;28;20232;-47
2021/07/11 02:45:19;;;;;;;26.48;22.52;;;;;;;;;;2048506;29;20206;-49
2021/07/11 02:46:21;;;;;;;26.92;24.20;;;;;;;;;;2048615;28;20190;-49
2021/07/11 02:47:29;;;;;;;25.23;22.70;;;;;;;;;;2048346;29;20167;-47
2021/07/11 02:48:31;;;;;;;27.15;24.35;;;;;;;;;;2043364;28;20180;-47
2021/07/11 02:49:31;;;;;;;25.52;23.00;;;;;;;;;;2051216;28;20171;-48
2021/07/11 02:50:42;;;;;;;25.65;23.05;;;;;;;;;;2047815;29;20246;-48
2021/07/11 02:51:48;;;;;;;24.23;21.73;;;;;;;;;;2048496;28;20179;-43
2021/07/11 02:52:51;;;;;;;24.98;22.38;;;;;;;;;;2053364;28;20252;-48
2021/07/11 02:53:54;;;;;;;26.77;23.90;;;;;;;;;;2050930;28;20182;-47
2021/07/11 02:54:56;;;;;;;27.92;24.10;;;;;;;;;;2051204;28;20187;-51
2021/07/11 02:55:58;;;;;;;24.25;21.75;;;;;;;;;;2056219;28;20209;-49
2021/07/11 02:57:04;;;;;;;25.75;22.92;;;;;;;;;;2056550;28;20170;-47
2021/07/11 02:58:08;;;;;;;24.33;21.75;;;;;;;;;;2047777;28;20638;-51
2021/07/11 02:59:11;;;;;;;25.52;22.60;;;;;;;;;;2043841;29;20178;-49
2021/07/11 03:00:16;;;;;;;24.92;22.40;;;;;;;;;;2042427;29;20701;-48
2021/07/11 03:01:19;;;;;;;24.48;22.08;;;;;;;;;;2044766;28;20727;-48
2021/07/11 03:02:24;;;;;;;24.67;21.98;;;;;;;;;;2056834;28;20177;-46
2021/07/11 03:03:27;;;;;;;24.45;21.98;;;;;;;;;;2057198;28;20182;-47
2021/07/11 03:04:36;;;;;;;26.10;23.30;;;;;;;;;;2048459;28;20194;-45
2021/07/11 03:05:37;;;;;;;25.45;22.92;;;;;;;;;;2049089;28;20175;-47
2021/07/11 03:06:39;;;;;;;25.90;23.20;;;;;;;;;;2053681;28;20166;-48
2021/07/11 03:07:40;;;;;;;26.42;22.92;;;;;;;;;;2056822;28;20183;-47
2021/07/11 03:08:43;;;;;;;26.40;23.80;;;;;;;;;;2056202;28;20257;-48
2021/07/11 03:09:55;;;;;;;25.10;22.38;;;;;;;;;;2050415;28;20192;-47
2021/07/11 03:11:00;;;;;;;25.33;22.63;;;;;;;;;;2046289;29;20206;-48
2021/07/11 03:12:04;;;;;;;24.70;22.20;;;;;;;;;;2051096;28;20174;-46
2021/07/11 03:13:07;;;;;;;23.92;21.38;;;;;;;;;;2059720;28;20173;-47
2021/07/11 03:14:14;;;;;;;26.23;23.45;;;;;;;;;;2042492;28;20183;-50
2021/07/11 03:15:22;;;;;;;24.23;21.92;;;;;;;;;;2041665;29;20163;-48
2021/07/11 03:16:27;;;;;;;22.45;20.35;;;;;;;;;;2049726;28;20203;-46
2021/07/11 03:17:31;;;;;;;23.92;21.33;;;;;;;;;;2057373;28;20178;-46
2021/07/11 03:18:34;;;;;;;23.25;20.83;;;;;;;;;;2044159;28;20228;-49
2021/07/11 03:19:36;;;;;;;24.60;21.92;;;;;;;;;;2054355;28;20191;-47
2021/07/11 03:20:37;;;;;;;24.27;21.92;;;;;;;;;;2048924;28;20660;-49
2021/07/11 03:21:38;;;;;;;23.65;21.45;;;;;;;;;;2048414;29;20285;-49
2021/07/11 03:22:41;;;;;;;23.70;21.40;;;;;;;;;;2048430;29;20221;-47
2021/07/11 03:23:43;;;;;;;24.83;22.27;;;;;;;;;;2041631;29;20226;-48
2021/07/11 03:24:43;;;;;;;25.02;22.35;;;;;;;;;;2052687;28;20210;-47
2021/07/11 03:25:50;;;;;;;24.63;22.20;;;;;;;;;;2053672;28;20225;-50
2021/07/11 03:26:51;;;;;;;26.42;23.65;;;;;;;;;;2048161;29;20606;-48
2021/07/11 03:27:51;;;;;;;24.73;22.13;;;;;;;;;;2044593;29;20214;-52
2021/07/11 03:28:52;;;;;;;24.25;21.92;;;;;;;;;;2052789;28;20181;-50
2021/07/11 03:30:04;;;;;;;26.23;23.55;;;;;;;;;;2052196;28;20167;-51
2021/07/11 03:31:06;;;;;;;23.33;21.13;;;;;;;;;;2059313;28;20186;-54
2021/07/11 03:32:07;;;;;;;25.60;22.70;;;;;;;;;;2060425;28;20230;-48
2021/07/11 03:33:08;;;;;;;25.15;22.55;;;;;;;;;;2059468;28;20185;-51
2021/07/11 03:34:09;;;;;;;25.17;22.55;;;;;;;;;;2059652;28;20181;-49
2021/07/11 03:35:11;;;;;;;26.80;24.20;;;;;;;;;;2058655;28;20169;-49
2021/07/11 03:36:14;;;;;;;26.35;23.65;;;;;;;;;;2050579;29;20203;-47
2021/07/11 03:37:15;;;;;;;27.35;24.60;;;;;;;;;;2042598;29;20168;-50
2021/07/11 03:38:20;;;;;;;27.52;24.83;;;;;;;;;;2034804;29;20180;-48
2021/07/11 03:39:23;;;;;;;27.70;24.75;;;;;;;;;;2049292;28;20600;-51
2021/07/11 03:40:26;;;;;;;28.50;25.63;;;;;;;;;;2048536;29;20179;-50
2021/07/11 03:41:32;;;;;;;27.42;24.58;;;;;;;;;;2047825;28;20238;-50
2021/07/11 03:42:38;;;;;;;28.75;24.30;;;;;;;;;;2057420;28;20170;-48
2021/07/11 03:43:41;;;;;;;28.25;25.30;;;;;;;;;;2049149;29;20174;-51
2021/07/11 03:44:47;;;;;;;28.63;25.73;;;;;;;;;;2047636;28;20201;-50
2021/07/11 03:45:49;;;;;;;28.02;25.15;;;;;;;;;;2050685;28;20174;-51
2021/07/11 03:46:50;;;;;;;28.85;25.90;;;;;;;;;;2059384;28;20191;-50
2021/07/11 03:47:54;;;;;;;28.20;25.15;;;;;;;;;;2059548;28;20217;-52
2021/07/11 03:48:56;;;;;;;29.65;26.48;;;;;;;;;;2059792;28;20783;-53
2021/07/11 03:49:57;;;;;;;27.77;24.77;;;;;;;;;;2058722;28;20208;-53
2021/07/11 03:51:00;;;;;;;28.50;25.13;;;;;;;;;;2058472;28;20182;-47
2021/07/11 03:52:02;;;;;;;28.08;25.17;;;;;;;;;;2059266;28;20751;-49
2021/07/11 03:53:04;;;;;;;29.50;24.90;;;;;;;;;;2057997;28;20175;-49
2021/07/11 03:54:06;;;;;;;27.60;24.70;;;;;;;;;;2058109;28;20182;-49
2021/07/11 03:55:07;;;;;;;29.13;25.73;;;;;;;;;;2057881;28;20648;-50
2021/07/11 03:56:08;;;;;;;27.70;24.83;;;;;;;;;;2058078;28;20179;-48
2021/07/11 03:57:09;;;;;;;30.30;26.60;;;;;;;;;;2058519;28;20555;-53
2021/07/11 03:58:10;;;;;;;29.17;26.02;;;;;;;;;;2057599;28;20359;-47
2021/07/11 03:59:10;;;;;;;29.00;26.20;;;;;;;;;;2054864;28;20762;-50
2021/07/11 04:00:11;;;;;;;29.08;25.55;;;;;;;;;;2053491;28;20182;-53
2021/07/11 04:01:15;;;;;;;28.98;25.75;;;;;;;;;;2058055;28;20238;-51
2021/07/11 04:02:15;;;;;;;28.48;25.63;;;;;;;;;;2057684;28;20178;-51
2021/07/11 04:03:19;;;;;;;27.60;24.80;;;;;;;;;;2057704;28;20589;-51
2021/07/11 04:04:21;;;;;;;30.02;26.70;;;;;;;;;;2057473;28;20620;-50
2021/07/11 04:05:22;;;;;;;29.92;26.77;;;;;;;;;;2055527;28;20174;-53
2021/07/11 04:06:24;;;;;;;27.35;24.55;;;;;;;;;;2057700;28;20523;-50
2021/07/11 04:07:25;;;;;;;29.70;26.83;;;;;;;;;;2057459;28;20209;-49
2021/07/11 04:08:25;;;;;;;28.35;25.35;;;;;;;;;;2048785;29;20171;-45
2021/07/11 04:09:26;;;;;;;28.23;25.50;;;;;;;;;;2039197;29;20199;-48
2021/07/11 04:10:27;;;;;;;28.00;25.23;;;;;;;;;;2043095;29;20186;-52
2021/07/11 04:11:27;;;;;;;32.15;27.45;;;;;;;;;;2054079;28;20178;-50
2021/07/11 04:12:28;;;;;;;29.05;25.95;;;;;;;;;;2058044;28;20209;-50
2021/07/11 04:13:28;;;;;;;27.63;24.83;;;;;;;;;;2053052;28;20206;-55
2021/07/11 04:14:28;;;;;;;28.27;25.25;;;;;;;;;;2056110;28;20296;-51
2021/07/11 04:15:30;;;;;;;28.00;25.25;;;;;;;;;;2058763;28;20185;-53
2021/07/11 04:16:32;;;;;;;28.48;25.45;;;;;;;;;;2059045;28;20178;-46
2021/07/11 04:17:34;;;;;;;28.17;25.25;;;;;;;;;;2058125;28;20257;-53
2021/07/11 04:18:39;;;;;;;28.55;25.70;;;;;;;;;;2049730;29;20183;-49
2021/07/11 04:19:43;;;;;;;28.00;25.00;;;;;;;;;;2050278;28;20194;-50
2021/07/11 04:20:45;;;;;;;28.40;25.58;;;;;;;;;;2058348;28;20186;-49
2021/07/11 04:21:48;;;;;;;27.27;24.38;;;;;;;;;;2052946;28;20189;-49
2021/07/11 04:22:51;;;;;;;30.02;26.88;;;;;;;;;;2057279;28;20636;-52
2021/07/11 04:23:51;;;;;;;27.58;24.63;;;;;;;;;;2058708;28;20254;-53
2021/07/11 04:24:53;;;;;;;29.23;26.17;;;;;;;;;;2058886;28;20186;-47
2021/07/11 04:25:54;;;;;;;28.85;25.90;;;;;;;;;;2057583;28;20261;-48
2021/07/11 04:26:55;;;;;;;30.17;26.95;;;;;;;;;;2047100;29;20660;-46
2021/07/11 04:27:56;;;;;;;29.48;26.35;;;;;;;;;;2049836;28;20183;-47
2021/07/11 04:28:56;;;;;;;29.65;26.27;;;;;;;;;;2059187;28;20684;-50
2021/07/11 04:29:56;;;;;;;28.60;25.75;;;;;;;;;;2056607;28;20654;-52
2021/07/11 04:30:58;;;;;;;29.67;26.73;;;;;;;;;;2054996;28;20280;-50
2021/07/11 04:31:59;;;;;;;29.25;26.23;;;;;;;;;;2052698;28;20166;-47
2021/07/11 04:32:59;;;;;;;29.45;26.30;;;;;;;;;;2057793;28;20682;-51
2021/07/11 04:34:09;;;;;;;30.15;27.05;;;;;;;;;;2057001;28;20170;-45
2021/07/11 04:35:09;;;;;;;28.98;25.92;;;;;;;;;;2057892;28;20716;-50
2021/07/11 04:36:09;;;;;;;31.10;27.73;;;;;;;;;;2058096;28;20185;-48
2021/07/11 04:37:11;;;;;;;31.30;27.85;;;;;;;;;;2053570;28;20640;-51
2021/07/11 04:38:11;;;;;;;32.00;28.15;;;;;;;;;;2049646;28;20246;-48
2021/07/11 04:39:12;;;;;;;31.77;28.00;;;;;;;;;;2058190;28;20170;-48
2021/07/11 04:40:12;;;;;;;31.40;28.15;;;;;;;;;;2057641;28;20190;-51
2021/07/11 04:41:12;;;;;;;31.13;27.92;;;;;;;;;;2052648;28;20231;-49
2021/07/11 04:42:13;;;;;;;31.15;27.23;;;;;;;;;;2048861;29;20209;-49
2021/07/11 04:43:16;;;;;;;31.45;27.50;;;;;;;;;;2056805;28;20233;-51
2021/07/11 04:44:17;;;;;;;31.77;28.38;;;;;;;;;;2056607;28;20178;-54
2021/07/11 04:45:19;;;;;;;32.55;28.80;;;;;;;;;;2049174;29;20186;-53
2021/07/11 04:46:19;;;;;;;30.65;27.55;;;;;;;;;;2048816;28;20254;-52
2021/07/11 04:47:20;;;;;;;29.50;26.42;;;;;;;;;;2056983;28;20178;-46
2021/07/11 04:48:20;;;;;;;31.90;28.60;;;;;;;;;;2057894;28;20186;-47
2021/07/11 04:49:22;;;;;;;31.35;28.05;;;;;;;;;;2057451;28;20174;-48
2021/07/11 04:50:22;;;;;;;31.55;28.25;;;;;;;;;;2057422;28;20173;-47
2021/07/11 04:51:23;;;;;;;35.03;30.63;;;;;;;;;;2056574;28;20190;-47
2021/07/11 04:52:23;;;;;;;31.67;28.27;;;;;;;;;;2056811;28;20208;-48
2021/07/11 04:53:24;;;;;;;29.75;26.30;;;;;;;;;;2056895;28;20174;-49
2021/07/11 04:54:24;;;;;;;31.67;28.35;;;;;;;;;;2052125;28;20563;-48
2021/07/11 04:55:25;;;;;;;30.65;27.35;;;;;;;;;;2057185;28;20198;-48
2021/07/11 04:56:25;;;;;;;27.48;24.55;;;;;;;;;;2048261;28;20179;-47
2021/07/11 04:57:25;;;;;;;30.77;27.60;;;;;;;;;;2048211;29;20206;-48
2021/07/11 04:58:26;;;;;;;31.05;27.85;;;;;;;;;;2057382;28;20538;-51
2021/07/11 04:59:26;;;;;;;31.75;28.30;;;;;;;;;;2051103;28;20171;-51
2021/07/11 05:00:26;;;;;;;29.08;25.67;;;;;;;;;;2054626;28;20183;-49
2021/07/11 05:01:27;;;;;;;29.67;26.58;;;;;;;;;;2056784;28;20653;-48
2021/07/11 05:02:27;;;;;;;29.60;26.33;;;;;;;;;;2055485;28;20527;-48
2021/07/11 05:03:27;;;;;;;29.67;26.58;;;;;;;;;;2054141;28;20194;-48
2021/07/11 05:04:29;;;;;;;29.85;26.65;;;;;;;;;;2054432;28;20257;-50
2021/07/11 05:05:29;;;;;;;30.52;26.48;;;;;;;;;;2057299;28;20170;-52
2021/07/11 05:06:29;;;;;;;30.65;27.45;;;;;;;;;;2057112;28;20317;-48
2021/07/11 05:07:29;;;;;;;28.75;25.70;;;;;;;;;;2057509;28;20677;-48
2021/07/11 05:08:29;;;;;;;27.83;24.88;;;;;;;;;;2057543;28;20272;-50
2021/07/11 05:09:30;;;;;;;30.45;26.20;;;;;;;;;;2057277;28;20189;-46
2021/07/11 05:10:30;;;;;;;28.48;25.48;;;;;;;;;;2048870;29;20182;-51
2021/07/11 05:11:31;;;;;;;29.45;26.58;;;;;;;;;;2047799;29;20171;-44
2021/07/11 05:12:31;;;;;;;31.35;28.00;;;;;;;;;;2055348;28;20232;-53
2021/07/11 05:13:31;;;;;;;30.42;27.33;;;;;;;;;;2056594;28;20178;-51
2021/07/11 05:14:32;;;;;;;29.88;26.80;;;;;;;;;;2057970;28;20257;-47
2021/07/11 05:15:32;;;;;;;27.88;24.98;;;;;;;;;;2056788;28;20186;-50
2021/07/11 05:16:32;;;;;;;30.88;27.77;;;;;;;;;;2056909;28;20174;-51
2021/07/11 05:17:33;;;;;;;31.45;28.35;;;;;;;;;;2043413;29;20222;-50
2021/07/11 05:18:33;;;;;;;30.05;26.77;;;;;;;;;;2048727;29;20174;-48
2021/07/11 05:19:34;;;;;;;32.17;28.77;;;;;;;;;;2058029;28;20198;-52
2021/07/11 05:20:35;;;;;;;38.75;34.67;;;;;;;;;;2058313;28;20193;-49
2021/07/11 05:21:35;;;;;;;29.48;26.45;;;;;;;;;;2050173;28;20229;-50
2021/07/11 05:22:35;;;;;;;33.30;29.70;;;;;;;;;;2048544;29;20206;-48
2021/07/11 05:23:36;;;;;;;30.77;26.67;;;;;;;;;;2049171;29;20257;-47
2021/07/11 05:24:37;;;;;;;29.92;26.77;;;;;;;;;;2057676;28;20859;-50
2021/07/11 05:25:37;;;;;;;30.40;27.33;;;;;;;;;;2057936;28;20227;-47
2021/07/11 05:26:37;;;;;;;27.35;24.55;;;;;;;;;;2058212;28;20241;-46
2021/07/11 05:27:37;;;;;;;27.58;24.88;;;;;;;;;;2058315;28;20178;-46
2021/07/11 05:28:39;;;;;;;26.77;24.17;;;;;;;;;;2058478;28;20170;-48
2021/07/11 05:29:40;;;;;;;29.30;26.17;;;;;;;;;;2058446;28;20169;-47
2021/07/11 05:30:40;;;;;;;28.23;25.30;;;;;;;;;;2057516;28;20186;-50
2021/07/11 05:31:40;;;;;;;30.02;27.08;;;;;;;;;;2057831;28;20188;-51
2021/07/11 05:32:40;;;;;;;32.58;29.08;;;;;;;;;;2058507;28;20182;-53
2021/07/11 05:33:41;;;;;;;32.85;29.23;;;;;;;;;;2053107;28;20614;-48
2021/07/11 05:34:41;;;;;;;29.20;26.08;;;;;;;;;;2058188;28;20221;-47
2021/07/11 05:35:41;;;;;;;32.20;27.02;;;;;;;;;;2058240;28;20554;-47
2021/07/11 05:36:42;;;;;;;30.83;27.73;;;;;;;;;;2050667;28;20739;-47
2021/07/11 05:37:42;;;;;;;29.40;26.50;;;;;;;;;;2050540;28;20174;-47
2021/07/11 05:38:42;;;;;;;28.67;25.73;;;;;;;;;;2050419;28;20261;-47
2021/07/11 05:39:42;;;;;;;30.45;27.08;;;;;;;;;;2050471;28;20175;-47
2021/07/11 05:40:43;;;;;;;32.50;29.05;;;;;;;;;;2050453;28;20187;-46
2021/07/11 05:41:43;;;;;;;31.63;28.27;;;;;;;;;;2050071;28;20289;-49
2021/07/11 05:42:44;;;;;;;30.08;27.13;;;;;;;;;;2050477;28;20272;-47
2021/07/11 05:43:44;;;;;;;32.30;28.92;;;;;;;;;;2057193;28;20617;-46
2021/07/11 05:44:44;;;;;;;30.10;26.92;;;;;;;;;;2058004;28;20218;-48
2021/07/11 05:45:45;;;;;;;28.25;25.50;;;;;;;;;;2051031;28;20210;-48
2021/07/11 05:46:45;;;;;;;30.13;26.92;;;;;;;;;;2057442;28;20214;-51
2021/07/11 05:47:47;;;;;;;29.38;26.38;;;;;;;;;;2054037;28;20229;-47
2021/07/11 05:48:47;;;;;;;28.80;25.88;;;;;;;;;;2057859;28;20170;-46
2021/07/11 05:49:47;;;;;;;29.48;26.48;;;;;;;;;;2053631;28;20253;-50
2021/07/11 05:50:47;;;;;;;28.20;25.25;;;;;;;;;;2050327;29;20163;-45
2021/07/11 05:51:48;;;;;;;28.23;24.92;;;;;;;;;;2050237;29;20179;-49
2021/07/11 05:52:48;;;;;;;28.85;25.90;;;;;;;;;;2050287;28;20186;-47
2021/07/11 05:53:48;;;;;;;29.20;25.80;;;;;;;;;;2057489;28;20178;-48
2021/07/11 05:54:49;;;;;;;28.98;25.75;;;;;;;;;;2048913;28;20663;-50
2021/07/11 05:55:49;;;;;;;27.70;24.80;;;;;;;;;;2049271;29;20360;-48
2021/07/11 05:56:50;;;;;;;26.40;23.90;;;;;;;;;;2057757;28;20171;-50
2021/07/11 05:57:50;;;;;;;25.60;23.17;;;;;;;;;;2057686;28;20170;-50
2021/07/11 05:58:50;;;;;;;26.63;23.83;;;;;;;;;;2056936;28;20277;-50
2021/07/11 05:59:50;;;;;;;26.02;23.42;;;;;;;;;;2050254;28;20167;-48
2021/07/11 06:00:51;;;;;;;27.48;24.73;;;;;;;;;;2056897;28;20185;-48
2021/07/11 06:01:51;;;;;;;25.52;23.13;;;;;;;;;;2050260;28;20301;-49